createdAt,value
2023-04-22T00:00:17.423Z,100286.75
2023-04-22T00:02:44.650Z,100282.91
2023-04-22T00:05:15.644Z,100277.50
2023-04-22T00:07:44.301Z,100283.63
2023-04-22T00:10:11.908Z,100267.59
2023-04-22T00:12:39.038Z,100280.28
2023-04-22T00:15:06.866Z,100275.06
2023-04-22T00:17:34.231Z,100268.53
2023-04-22T00:20:01.947Z,100273.47
2023-04-22T00:22:29.012Z,100262.19
2023-04-22T00:24:56.223Z,100261.88
2023-04-22T00:27:23.230Z,100265.09
2023-04-22T00:29:50.295Z,100265.00
2023-04-22T00:32:17.288Z,100265.16
2023-04-22T00:34:44.274Z,100269.47
2023-04-22T00:37:11.424Z,100269.28
2023-04-22T00:39:39.957Z,100255.28
2023-04-22T00:42:07.996Z,100273.56
2023-04-22T00:44:36.573Z,100265.34
2023-04-22T00:47:04.486Z,100268.88
2023-04-22T00:49:32.441Z,100260.66
2023-04-22T00:51:59.433Z,100265.09
2023-04-22T00:54:26.782Z,100261.59
2023-04-22T00:56:53.764Z,100263.88
2023-04-22T00:59:22.529Z,100261.47
2023-04-22T01:01:49.989Z,100270.44
2023-04-22T01:04:17.962Z,100262.03
2023-04-22T01:06:45.448Z,100258.66
2023-04-22T01:09:13.316Z,100255.88
2023-04-22T01:11:41.030Z,100263.13
2023-04-22T01:14:08.118Z,100246.19
2023-04-22T01:16:35.981Z,100255.44
2023-04-22T01:19:03.111Z,100264.09
2023-04-22T01:21:33.598Z,100252.94
2023-04-22T01:24:02.118Z,100256.88
2023-04-22T01:26:29.578Z,100262.50
2023-04-22T01:28:56.762Z,100267.19
2023-04-22T01:31:24.174Z,100267.94
2023-04-22T01:33:51.708Z,100259.88
2023-04-22T01:36:18.889Z,100271.00
2023-04-22T01:38:46.024Z,100273.63
2023-04-22T01:41:14.743Z,100258.63
2023-04-22T01:43:43.221Z,100265.25
2023-04-22T01:46:10.428Z,100263.66
2023-04-22T01:48:38.299Z,100263.38
2023-04-22T01:51:05.706Z,100261.22
2023-04-22T01:53:32.744Z,100258.22
2023-04-22T01:56:00.477Z,100260.69
2023-04-22T01:58:29.860Z,100262.31
2023-04-22T02:00:57.189Z,100263.34
2023-04-22T02:03:24.363Z,100255.84
2023-04-22T02:05:51.572Z,100259.81
2023-04-22T02:08:18.606Z,100259.19
2023-04-22T02:10:45.668Z,100252.00
2023-04-22T02:13:12.680Z,100249.97
2023-04-22T02:19:49.164Z,100250.28
2023-04-22T02:22:17.255Z,100243.88
2023-04-22T02:24:44.306Z,100250.34
2023-04-22T02:27:11.307Z,100248.81
2023-04-22T02:29:38.876Z,100245.31
2023-04-22T02:32:06.354Z,100237.00
2023-04-22T02:34:33.370Z,100240.41
2023-04-22T02:37:00.433Z,100235.03
2023-04-22T02:39:27.417Z,100235.72
2023-04-22T02:41:54.787Z,100240.41
2023-04-22T02:44:21.790Z,100239.75
2023-04-22T02:46:49.287Z,100238.16
2023-04-22T02:49:16.358Z,100240.41
2023-04-22T02:51:43.375Z,100245.56
2023-04-22T02:54:10.397Z,100234.25
2023-04-22T02:56:37.405Z,100242.75
2023-04-22T02:59:04.637Z,100235.81
2023-04-22T03:01:32.368Z,100233.94
2023-04-22T03:03:59.825Z,100235.56
2023-04-22T03:06:27.281Z,100235.28
2023-04-22T03:08:54.289Z,100242.00
2023-04-22T03:11:21.442Z,100245.19
2023-04-22T03:13:48.511Z,100244.69
2023-04-22T03:16:17.702Z,100247.94
2023-04-22T03:18:44.799Z,100241.50
2023-04-22T03:21:11.774Z,100246.03
2023-04-22T03:23:38.888Z,100250.00
2023-04-22T03:26:06.260Z,100244.22
2023-04-22T03:28:33.665Z,100252.47
2023-04-22T03:31:00.687Z,100247.38
2023-04-22T03:33:27.696Z,100258.81
2023-04-22T03:35:55.259Z,100256.00
2023-04-22T03:38:22.312Z,100256.97
2023-04-22T03:40:51.001Z,100255.09
2023-04-22T03:43:18.630Z,100261.91
2023-04-22T03:45:47.225Z,100249.63
2023-04-22T03:48:14.268Z,100261.13
2023-04-22T03:50:41.310Z,100253.88
2023-04-22T03:53:08.335Z,100255.94
2023-04-22T03:55:35.375Z,100257.75
2023-04-22T03:58:02.440Z,100263.69
2023-04-22T04:00:29.496Z,100264.09
2023-04-22T04:02:56.637Z,100249.56
2023-04-22T04:05:23.801Z,100260.34
2023-04-22T04:07:51.105Z,100258.03
2023-04-22T04:10:18.177Z,100264.50
2023-04-22T04:12:45.166Z,100261.63
2023-04-22T04:15:12.265Z,100258.81
2023-04-22T04:17:39.784Z,100272.34
2023-04-22T04:20:07.541Z,100253.69
2023-04-22T04:22:35.087Z,100262.34
2023-04-22T04:25:02.620Z,100262.13
2023-04-22T04:27:29.822Z,100259.50
2023-04-22T04:29:56.965Z,100261.13
2023-04-22T04:32:25.066Z,100257.69
2023-04-22T04:34:52.726Z,100264.97
2023-04-22T04:37:19.737Z,100270.19
2023-04-22T04:39:46.746Z,100273.63
2023-04-22T04:42:14.491Z,100268.22
2023-04-22T04:44:41.558Z,100270.47
2023-04-22T04:47:08.596Z,100268.78
2023-04-22T04:49:39.976Z,100263.38
2023-04-22T04:52:10.263Z,100271.38
2023-04-22T04:54:37.664Z,100269.34
2023-04-22T04:57:06.057Z,100269.06
2023-04-22T04:59:33.070Z,100266.66
2023-04-22T05:02:00.127Z,100269.19
2023-04-22T05:04:27.615Z,100256.69
2023-04-22T05:06:54.831Z,100271.66
2023-04-22T05:09:21.830Z,100271.94
2023-04-22T05:11:48.814Z,100269.00
2023-04-22T05:14:15.799Z,100273.72
2023-04-22T05:16:42.971Z,100277.47
2023-04-22T05:19:10.057Z,100275.13
2023-04-22T05:21:37.088Z,100263.56
2023-04-22T05:24:04.360Z,100263.97
2023-04-22T05:26:31.369Z,100269.25
2023-04-22T05:28:58.373Z,100266.59
2023-04-22T05:31:25.397Z,100262.53
2023-04-22T05:33:52.429Z,100263.88
2023-04-22T05:36:19.437Z,100267.91
2023-04-22T05:38:46.478Z,100263.91
2023-04-22T05:41:13.523Z,100267.19
2023-04-22T05:43:40.570Z,100268.31
2023-04-22T05:46:07.707Z,100262.69
2023-04-22T05:48:34.781Z,100257.84
2023-04-22T05:51:02.008Z,100264.25
2023-04-22T05:53:29.005Z,100261.47
2023-04-22T05:55:56.114Z,100260.69
2023-04-22T05:58:23.262Z,100264.06
2023-04-22T06:00:50.264Z,100258.72
2023-04-22T06:03:17.423Z,100262.34
2023-04-22T06:05:44.770Z,100260.38
2023-04-22T06:08:11.847Z,100263.94
2023-04-22T06:10:39.002Z,100260.22
2023-04-22T06:13:06.275Z,100257.88
2023-04-22T06:15:34.944Z,100268.56
2023-04-22T06:18:02.289Z,100265.19
2023-04-22T06:20:29.512Z,100256.72
2023-04-22T06:22:56.539Z,100261.66
2023-04-22T06:25:23.617Z,100258.59
2023-04-22T06:27:51.021Z,100260.97
2023-04-22T06:30:18.094Z,100252.06
2023-04-22T06:32:45.246Z,100262.22
2023-04-22T06:35:12.346Z,100266.72
2023-04-22T06:37:39.356Z,100257.59
2023-04-22T06:40:07.499Z,100255.97
2023-04-22T06:42:34.707Z,100254.09
2023-04-22T06:45:02.135Z,100258.03
2023-04-22T06:47:29.275Z,100253.38
2023-04-22T06:49:56.263Z,100256.50
2023-04-22T06:52:24.261Z,100260.31
2023-04-22T06:54:51.371Z,100261.59
2023-04-22T06:57:18.370Z,100248.72
2023-04-22T06:59:46.803Z,100255.66
2023-04-22T07:02:14.426Z,100262.59
2023-04-22T07:04:41.760Z,100258.28
2023-04-22T07:07:09.238Z,100257.47
2023-04-22T07:09:37.131Z,100254.44
2023-04-22T07:12:04.728Z,100252.16
2023-04-22T07:14:32.352Z,100249.88
2023-04-22T07:17:00.241Z,100244.06
2023-04-22T07:19:27.377Z,100249.59
2023-04-22T07:21:54.634Z,100257.19
2023-04-22T07:24:21.787Z,100246.56
2023-04-22T07:26:48.996Z,100251.34
2023-04-22T07:29:16.056Z,100247.13
2023-04-22T07:31:44.078Z,100248.91
2023-04-22T07:34:11.275Z,100243.69
2023-04-22T07:36:38.537Z,100242.97
2023-04-22T07:39:05.819Z,100250.66
2023-04-22T07:41:32.863Z,100245.25
2023-04-22T07:44:00.517Z,100233.06
2023-04-22T07:46:27.736Z,100233.66
2023-04-22T07:48:55.155Z,100237.47
2023-04-22T07:51:22.219Z,100240.22
2023-04-22T07:53:49.280Z,100223.25
2023-04-22T07:56:16.325Z,100233.91
2023-04-22T07:58:43.348Z,100236.81
2023-04-22T08:01:10.476Z,100237.47
2023-04-22T08:03:37.928Z,100248.28
2023-04-22T08:06:05.147Z,100232.41
2023-04-22T08:08:32.196Z,100240.47
2023-04-22T08:10:59.175Z,100239.88
2023-04-22T08:13:26.206Z,100238.22
2023-04-22T08:15:53.326Z,100238.31
2023-04-22T08:18:20.759Z,100235.47
2023-04-22T08:20:48.116Z,100239.75
2023-04-22T08:23:15.456Z,100229.16
2023-04-22T08:25:42.851Z,100234.25
2023-04-22T08:28:09.959Z,100236.75
2023-04-22T08:30:36.981Z,100230.53
2023-04-22T08:33:03.992Z,100224.84
2023-04-22T08:35:31.343Z,100225.34
2023-04-22T08:37:58.436Z,100228.53
2023-04-22T08:40:27.772Z,100235.59
2023-04-22T08:42:58.616Z,100224.34
2023-04-22T08:45:25.864Z,100228.22
2023-04-22T08:47:54.250Z,100228.75
2023-04-22T08:50:25.568Z,100220.66
2023-04-22T08:52:52.624Z,100213.81
2023-04-22T08:55:19.880Z,100216.13
2023-04-22T08:57:48.822Z,100223.06
2023-04-22T09:00:16.733Z,100227.44
2023-04-22T09:02:45.826Z,100222.59
2023-04-22T09:05:14.996Z,100217.28
2023-04-22T09:07:42.419Z,100205.63
2023-04-22T09:10:11.890Z,100210.03
2023-04-22T09:12:40.886Z,100213.09
2023-04-22T09:15:09.806Z,100207.75
2023-04-22T09:17:39.214Z,100209.41
2023-04-22T09:20:08.889Z,100207.59
2023-04-22T09:22:49.019Z,100209.53
2023-04-22T09:25:25.631Z,100206.78
2023-04-22T09:27:59.851Z,100200.53
2023-04-22T09:30:33.589Z,100201.06
2023-04-22T09:33:03.178Z,100203.22
2023-04-22T09:35:37.155Z,100197.72
2023-04-22T09:38:10.430Z,100210.25
2023-04-22T09:40:42.332Z,100192.44
2023-04-22T09:43:10.195Z,100191.19
2023-04-22T09:45:41.504Z,100194.38
2023-04-22T09:48:13.795Z,100193.72
2023-04-22T09:50:49.964Z,100190.72
2023-04-22T09:53:22.027Z,100182.41
2023-04-22T09:55:53.327Z,100182.50
2023-04-22T09:58:27.752Z,100183.44
2023-04-22T10:00:58.136Z,100183.91
2023-04-22T10:03:25.354Z,100167.13
2023-04-22T10:05:52.489Z,100175.88
2023-04-22T10:08:19.536Z,100180.16
2023-04-22T10:10:46.830Z,100178.31
2023-04-22T10:13:13.997Z,100169.03
2023-04-22T10:15:47.934Z,100186.94
2023-04-22T10:18:22.894Z,100186.06
2023-04-22T10:20:51.286Z,100166.72
2023-04-22T10:23:24.374Z,100169.88
2023-04-22T10:25:55.395Z,100164.31
2023-04-22T10:28:24.506Z,100165.78
2023-04-22T10:30:51.942Z,100159.22
2023-04-22T10:33:21.783Z,100157.06
2023-04-22T10:36:09.633Z,100153.97
2023-04-22T10:38:55.620Z,100163.47
2023-04-22T10:41:31.374Z,100159.06
2023-04-22T10:44:08.145Z,100160.22
2023-04-22T10:46:37.144Z,100159.31
2023-04-22T10:49:13.954Z,100159.06
2023-04-22T10:51:48.324Z,100149.25
2023-04-22T10:54:30.634Z,100148.22
2023-04-22T10:57:22.841Z,100145.00
2023-04-22T10:59:58.520Z,100146.16
2023-04-22T11:02:26.126Z,100144.06
2023-04-22T11:05:21.906Z,100132.72
2023-04-22T11:07:53.232Z,100136.53
2023-04-22T11:10:44.579Z,100146.69
2023-04-22T11:13:21.495Z,100140.94
2023-04-22T11:15:55.230Z,100144.44
2023-04-22T11:18:25.966Z,100139.59
2023-04-22T11:20:53.898Z,100134.97
2023-04-22T11:23:27.193Z,100135.03
2023-04-22T11:26:02.387Z,100129.34
2023-04-22T11:28:29.680Z,100131.38
2023-04-22T11:31:05.688Z,100135.63
2023-04-22T11:33:34.810Z,100131.03
2023-04-22T11:36:02.239Z,100128.59
2023-04-22T11:38:29.231Z,100121.34
2023-04-22T11:40:58.451Z,100116.91
2023-04-22T11:43:25.550Z,100118.72
2023-04-22T11:45:55.669Z,100118.00
2023-04-22T11:48:22.871Z,100113.50
2023-04-22T11:51:06.550Z,100110.16
2023-04-22T11:53:33.512Z,100112.63
2023-04-22T11:56:02.722Z,100113.53
2023-04-22T11:58:29.746Z,100120.88
2023-04-22T12:01:00.767Z,100115.63
2023-04-22T12:03:30.559Z,100111.53
2023-04-22T12:06:06.016Z,100099.69
2023-04-22T12:08:44.392Z,100112.53
2023-04-22T12:11:12.566Z,100095.09
2023-04-22T12:13:42.113Z,100104.72
2023-04-22T12:16:20.086Z,100107.25
2023-04-22T12:18:55.558Z,100104.09
2023-04-22T12:21:25.199Z,100105.75
2023-04-22T12:24:00.648Z,100091.75
2023-04-22T12:26:28.314Z,100107.00
2023-04-22T12:28:58.233Z,100106.97
2023-04-22T12:31:26.934Z,100103.13
2023-04-22T12:33:54.268Z,100107.66
2023-04-22T12:36:22.048Z,100098.06
2023-04-22T12:38:49.803Z,100094.69
2023-04-22T12:41:17.120Z,100099.16
2023-04-22T12:43:44.411Z,100094.56
2023-04-22T12:46:11.466Z,100090.97
2023-04-22T12:48:38.542Z,100092.75
2023-04-22T12:51:06.993Z,100082.13
2023-04-22T12:53:34.495Z,100082.06
2023-04-22T12:56:01.685Z,100080.53
2023-04-22T12:58:28.798Z,100076.16
2023-04-22T13:00:55.792Z,100073.03
2023-04-22T13:03:22.993Z,100067.88
2023-04-22T13:05:50.413Z,100074.88
2023-04-22T13:08:18.021Z,100073.78
2023-04-22T13:10:45.036Z,100071.91
2023-04-22T13:15:42.018Z,100066.31
2023-04-22T13:18:09.094Z,100067.22
2023-04-22T13:20:36.229Z,100064.22
2023-04-22T13:23:04.726Z,100062.84
2023-04-22T13:25:32.090Z,100061.19
2023-04-22T13:27:59.079Z,100065.94
2023-04-22T13:30:26.247Z,100049.72
2023-04-22T13:32:53.442Z,100060.72
2023-04-22T13:35:20.856Z,100059.66
2023-04-22T13:37:47.866Z,100063.72
2023-04-22T13:40:15.273Z,100047.00
2023-04-22T13:42:44.381Z,100047.47
2023-04-22T13:45:11.528Z,100052.84
2023-04-22T13:47:38.527Z,100049.84
2023-04-22T13:50:06.586Z,100053.59
2023-04-22T13:52:34.015Z,100057.44
2023-04-22T13:55:03.134Z,100051.94
2023-04-22T13:57:30.635Z,100049.28
2023-04-22T13:59:57.715Z,100045.81
2023-04-22T14:02:24.799Z,100051.34
2023-04-22T14:04:52.148Z,100051.44
2023-04-22T14:07:19.173Z,100042.47
2023-04-22T14:09:46.223Z,100053.16
2023-04-22T14:12:13.788Z,100045.13
2023-04-22T14:14:40.828Z,100042.34
2023-04-22T14:17:08.247Z,100046.03
2023-04-22T14:19:39.107Z,100040.53
2023-04-22T14:22:06.700Z,100046.97
2023-04-22T14:24:33.929Z,100040.78
2023-04-22T14:27:01.870Z,100046.38
2023-04-22T14:29:29.937Z,100041.06
2023-04-22T14:31:58.438Z,100034.50
2023-04-22T14:34:26.950Z,100033.72
2023-04-22T14:36:54.256Z,100030.84
2023-04-22T14:39:21.573Z,100029.94
2023-04-22T14:41:49.263Z,100030.94
2023-04-22T14:44:16.652Z,100028.25
2023-04-22T14:46:43.857Z,100031.84
2023-04-22T14:49:10.857Z,100028.22
2023-04-22T14:51:37.890Z,100022.84
2023-04-22T14:54:05.539Z,100028.44
2023-04-22T14:56:32.544Z,100020.44
2023-04-22T14:58:59.666Z,100021.28
2023-04-22T15:01:26.710Z,100020.66
2023-04-22T15:03:53.878Z,100016.06
2023-04-22T15:06:23.050Z,100012.09
2023-04-22T15:08:51.825Z,100013.28
2023-04-22T15:11:18.990Z,100013.41
2023-04-22T15:13:46.117Z,100012.34
2023-04-22T15:16:13.558Z,100023.91
2023-04-22T15:18:40.928Z,100016.03
2023-04-22T15:21:10.554Z,100013.06
2023-04-22T15:23:37.753Z,100009.53
2023-04-22T15:26:04.889Z,100020.25
2023-04-22T15:28:31.912Z,100012.22
2023-04-22T15:30:59.092Z,100011.19
2023-04-22T15:33:26.153Z,100016.47
2023-04-22T15:35:53.281Z,100016.47
2023-04-22T15:38:20.300Z,100012.19
2023-04-22T15:40:47.322Z,100009.59
2023-04-22T15:43:14.306Z,100008.75
2023-04-22T15:45:41.398Z,100010.56
2023-04-22T15:48:09.620Z,100007.84
2023-04-22T15:50:38.773Z,100013.47
2023-04-22T15:53:06.873Z,100004.78
2023-04-22T15:55:33.858Z,100001.97
2023-04-22T15:58:00.834Z,100000.34
2023-04-22T16:00:27.956Z,99997.63
2023-04-22T16:02:55.676Z,100000.97
2023-04-22T16:05:24.940Z,99997.50
2023-04-22T16:07:53.348Z,100002.13
2023-04-22T16:10:20.873Z,100002.84
2023-04-22T16:12:48.012Z,99997.69
2023-04-22T16:15:15.108Z,100002.16
2023-04-22T16:17:43.155Z,100004.81
2023-04-22T16:20:10.754Z,99998.59
2023-04-22T16:22:37.789Z,99996.03
2023-04-22T16:25:05.733Z,99991.75
2023-04-22T16:27:32.900Z,100000.00
2023-04-22T16:29:59.928Z,100000.97
2023-04-22T16:32:27.059Z,99999.16
2023-04-22T16:34:54.048Z,99992.69
2023-04-22T16:37:21.083Z,99992.16
2023-04-22T16:39:48.128Z,100003.91
2023-04-22T16:42:15.224Z,99993.25
2023-04-22T16:44:42.224Z,99994.16
2023-04-22T16:47:09.269Z,99996.91
2023-04-22T16:49:36.281Z,99995.22
2023-04-22T16:52:03.604Z,99991.59
2023-04-22T16:54:30.563Z,100002.47
2023-04-22T16:56:57.777Z,99993.41
2023-04-22T16:59:24.934Z,100001.56
2023-04-22T17:01:52.267Z,99999.84
2023-04-22T17:04:19.520Z,99995.56
2023-04-22T17:06:46.661Z,99992.91
2023-04-22T17:09:13.676Z,99999.19
2023-04-22T17:11:40.676Z,99994.56
2023-04-22T17:14:07.981Z,99998.34
2023-04-22T17:16:35.082Z,99986.00
2023-04-22T17:19:02.121Z,99980.59
2023-04-22T17:21:29.389Z,99986.84
2023-04-22T17:23:58.644Z,99994.06
2023-04-22T17:26:25.965Z,99983.44
2023-04-22T17:28:52.969Z,99995.88
2023-04-22T17:31:20.461Z,99992.53
2023-04-22T17:33:47.973Z,99992.66
2023-04-22T17:36:15.055Z,99992.53
2023-04-22T17:38:42.070Z,100000.69
2023-04-22T17:41:09.131Z,100003.47
2023-04-22T17:43:36.299Z,99996.50
2023-04-22T17:46:03.390Z,100005.47
2023-04-22T17:48:30.388Z,100009.13
2023-04-22T17:51:01.397Z,100012.78
2023-04-22T17:53:28.428Z,100015.53
2023-04-22T17:55:55.496Z,100004.00
2023-04-22T17:58:22.592Z,100017.34
2023-04-22T18:00:49.606Z,100019.25
2023-04-22T18:03:17.591Z,100012.19
2023-04-22T18:05:44.765Z,100008.69
2023-04-22T18:08:11.899Z,100009.56
2023-04-22T18:10:39.480Z,100022.00
2023-04-22T18:13:06.930Z,100016.69
2023-04-22T18:15:34.010Z,100014.91
2023-04-22T18:18:01.399Z,100015.81
2023-04-22T18:20:28.558Z,100020.31
2023-04-22T18:22:56.535Z,100019.44
2023-04-22T18:25:24.311Z,100015.91
2023-04-22T18:27:55.045Z,100023.97
2023-04-22T18:30:25.436Z,100010.59
2023-04-22T18:32:52.688Z,100029.28
2023-04-22T18:35:20.253Z,100026.66
2023-04-22T18:37:47.452Z,100030.22
2023-04-22T18:40:15.059Z,100031.97
2023-04-22T18:42:44.847Z,100034.66
2023-04-22T18:45:12.249Z,100036.41
2023-04-22T18:47:39.351Z,100029.34
2023-04-22T18:50:07.208Z,100037.31
2023-04-22T18:52:34.665Z,100030.25
2023-04-22T18:55:01.687Z,100040.03
2023-04-22T18:57:28.880Z,100036.47
2023-04-22T18:59:56.190Z,100024.03
2023-04-22T19:02:23.331Z,100027.59
2023-04-22T19:04:51.366Z,100032.03
2023-04-22T19:07:18.377Z,100039.13
2023-04-22T19:09:45.531Z,100040.00
2023-04-22T19:12:14.809Z,100032.00
2023-04-22T19:14:42.447Z,100036.47
2023-04-22T19:17:09.944Z,100044.44
2023-04-22T19:19:36.933Z,100032.81
2023-04-22T19:22:03.955Z,100036.44
2023-04-22T19:24:33.623Z,100038.16
2023-04-22T19:27:06.959Z,100046.13
2023-04-22T19:29:34.099Z,100041.75
2023-04-22T19:32:01.876Z,100043.50
2023-04-22T19:34:29.134Z,100044.31
2023-04-22T19:36:56.306Z,100039.00
2023-04-22T19:39:23.665Z,100031.81
2023-04-22T19:41:51.742Z,100030.00
2023-04-22T19:44:18.959Z,100034.38
2023-04-22T19:46:45.988Z,100033.47
2023-04-22T19:49:13.494Z,100031.75
2023-04-22T19:51:41.880Z,100034.28
2023-04-22T19:54:10.933Z,100028.06
2023-04-22T19:56:38.676Z,100026.28
2023-04-22T19:59:07.055Z,100032.47
2023-04-22T20:01:35.150Z,100028.06
2023-04-22T20:04:04.239Z,100032.53
2023-04-22T20:06:32.705Z,100026.25
2023-04-22T20:09:01.623Z,100020.88
2023-04-22T20:11:29.577Z,100020.94
2023-04-22T20:13:57.036Z,100028.00
2023-04-22T20:16:24.420Z,100021.75
2023-04-22T20:18:51.592Z,100024.25
2023-04-22T20:21:20.039Z,100016.31
2023-04-22T20:23:50.308Z,100032.09
2023-04-22T20:26:20.904Z,100020.53
2023-04-22T20:28:52.225Z,100013.50
2023-04-22T20:31:20.761Z,100021.50
2023-04-22T20:33:48.591Z,100015.19
2023-04-22T20:36:18.230Z,100023.88
2023-04-22T20:38:48.904Z,100033.66
2023-04-22T20:41:20.199Z,100023.88
2023-04-22T20:43:47.341Z,100019.34
2023-04-22T20:46:14.507Z,100017.53
2023-04-22T20:48:41.637Z,100023.84
2023-04-22T20:51:08.886Z,100025.50
2023-04-22T20:53:36.259Z,100022.88
2023-04-22T20:56:03.697Z,100029.94
2023-04-22T20:58:32.480Z,100029.81
2023-04-22T21:00:59.680Z,100028.00
2023-04-22T21:03:28.070Z,100035.00
2023-04-22T21:05:56.842Z,100022.53
2023-04-22T21:08:25.532Z,100025.22
2023-04-22T21:10:56.000Z,100011.00
2023-04-22T21:13:23.861Z,100020.56
2023-04-22T21:15:57.783Z,100023.13
2023-04-22T21:18:26.586Z,100017.88
2023-04-22T21:20:54.989Z,100017.84
2023-04-22T21:23:24.612Z,100022.25
2023-04-22T21:25:54.829Z,100023.00
2023-04-22T21:28:22.965Z,100019.47
2023-04-22T21:30:50.636Z,100024.63
2023-04-22T21:33:17.642Z,100020.28
2023-04-22T21:35:44.785Z,100029.25
2023-04-22T21:38:12.014Z,100024.69
2023-04-22T21:40:39.038Z,100029.97
2023-04-22T21:43:06.129Z,100029.13
2023-04-22T21:45:34.540Z,100022.06
2023-04-22T21:48:01.641Z,100025.59
2023-04-22T21:50:30.445Z,100024.63
2023-04-22T21:52:57.961Z,100026.47
2023-04-22T21:55:25.011Z,100015.84
2023-04-22T21:57:52.174Z,100022.72
2023-04-22T22:00:19.419Z,100022.75
2023-04-22T22:02:48.417Z,100029.63
2023-04-22T22:05:16.122Z,100032.41
2023-04-22T22:07:44.830Z,100025.13
2023-04-22T22:10:18.219Z,100027.56
2023-04-22T22:12:47.001Z,100029.47
2023-04-22T22:15:16.149Z,100032.41
2023-04-22T22:17:44.764Z,100034.81
2023-04-22T22:20:16.816Z,100027.69
2023-04-22T22:22:44.551Z,100030.41
2023-04-22T22:25:14.904Z,100026.81
2023-04-22T22:27:47.217Z,100031.16
2023-04-22T22:30:18.982Z,100024.91
2023-04-22T22:32:46.406Z,100033.78
2023-04-22T22:35:13.884Z,100032.94
2023-04-22T22:37:41.119Z,100030.28
2023-04-22T22:40:09.081Z,100029.38
2023-04-22T22:42:36.307Z,100033.00
2023-04-22T22:45:05.124Z,100033.94
2023-04-22T22:47:32.639Z,100028.63
2023-04-22T22:49:59.888Z,100031.28
2023-04-22T22:52:27.515Z,100023.34
2023-04-22T22:54:54.576Z,100029.59
2023-04-22T22:57:21.627Z,100036.66
2023-04-22T22:59:48.679Z,100032.38
2023-04-22T23:02:15.822Z,100031.59
2023-04-22T23:04:43.386Z,100027.88
2023-04-22T23:07:10.727Z,100032.34
2023-04-22T23:09:37.718Z,100033.19
2023-04-22T23:12:05.491Z,100040.34
2023-04-22T23:14:33.421Z,100030.47
2023-04-22T23:17:00.616Z,100026.84
2023-04-22T23:19:28.623Z,100026.84
2023-04-22T23:21:56.510Z,100029.47
2023-04-22T23:24:23.852Z,100025.03
2023-04-22T23:26:51.299Z,100025.84
2023-04-22T23:29:19.580Z,100024.09
2023-04-22T23:31:50.414Z,100027.56
2023-04-22T23:34:19.027Z,100027.56
2023-04-22T23:36:46.212Z,100022.25
2023-04-22T23:39:13.377Z,100012.66
2023-04-22T23:41:40.381Z,100017.19
2023-04-22T23:44:07.335Z,100017.84
2023-04-22T23:46:34.512Z,100016.88
2023-04-22T23:49:02.043Z,100010.50
2023-04-22T23:51:29.797Z,100014.09
2023-04-22T23:53:56.844Z,100006.91
2023-04-22T23:56:24.282Z,100012.19
2023-04-22T23:58:51.646Z,100011.41
